Time;durP1;ratioP1;P1;durP2;ratioP2;P2;SDS_P1;SDS_P2;PMS_P1;PMS_P2;Temp;Humidity;BMP_temperature;BMP_pressure;BME280_temperature;BME280_humidity;BME280_pressure;Samples;Min_cycle;Max_cycle;Signal;HPM_P1;HPM_P2
2022/12/02 00:01:50;;;;;;;8.87;4.93;;;20.90;99.90;;;;;;4998061;28;20625;-47
2022/12/02 00:04:25;;;;;;;9.15;5.20;;;20.90;99.90;;;;;;5015645;28;20032;-47
2022/12/02 00:06:53;;;;;;;9.32;5.07;;;20.90;99.90;;;;;;5015632;28;20029;-47
2022/12/02 00:09:41;;;;;;;8.50;5.25;;;20.90;99.90;;;;;;5015605;28;20022;-48
2022/12/02 00:12:23;;;;;;;6.05;4.10;;;20.90;99.90;;;;;;5015586;28;20034;-48
2022/12/02 00:15:20;;;;;;;8.95;4.63;;;20.90;99.90;;;;;;5014219;28;20522;-48
2022/12/02 00:17:46;;;;;;;6.95;4.75;;;20.80;99.90;;;;;;5015411;28;20430;-48
2022/12/02 00:20:12;;;;;;;8.82;5.05;;;20.80;99.90;;;;;;5014076;28;20026;-47
2022/12/02 00:22:37;;;;;;;8.90;5.28;;;20.80;99.90;;;;;;5015202;28;20029;-48
2022/12/02 00:25:03;;;;;;;9.50;5.50;;;20.80;99.90;;;;;;5015396;28;20030;-47
2022/12/02 00:27:29;;;;;;;6.80;4.43;;;20.80;99.90;;;;;;5015683;28;20029;-47
2022/12/02 00:29:55;;;;;;;7.57;4.97;;;20.80;99.90;;;;;;5015176;28;20022;-47
2022/12/02 00:32:21;;;;;;;8.45;4.85;;;20.80;99.90;;;;;;5015033;28;20037;-47
2022/12/02 00:34:46;;;;;;;6.60;4.03;;;20.80;99.90;;;;;;5015027;28;20030;-48
2022/12/02 00:37:12;;;;;;;8.10;4.35;;;20.80;99.90;;;;;;5015222;28;20140;-48
2022/12/02 00:39:38;;;;;;;8.32;4.68;;;20.80;99.90;;;;;;5014965;28;20390;-48
2022/12/02 00:42:03;;;;;;;7.43;4.93;;;20.80;99.90;;;;;;5013605;28;20037;-48
2022/12/02 00:47:13;;;;;;;5.97;4.38;;;20.80;99.90;;;;;;5014976;28;20064;-47
2022/12/02 00:49:39;;;;;;;8.02;4.90;;;20.80;99.90;;;;;;5014854;28;20053;-47
2022/12/02 00:52:05;;;;;;;6.13;4.45;;;20.80;99.90;;;;;;5014730;28;20022;-48
2022/12/02 00:54:31;;;;;;;7.32;4.65;;;20.80;99.90;;;;;;5014449;28;20104;-47
2022/12/02 00:56:56;;;;;;;8.38;4.72;;;20.80;99.90;;;;;;5013652;28;20042;-48
2022/12/02 00:59:22;;;;;;;8.15;4.43;;;20.80;99.90;;;;;;5015298;28;20045;-47
2022/12/02 01:01:48;;;;;;;5.50;4.32;;;20.80;99.90;;;;;;5014432;28;20046;-47
2022/12/02 01:04:14;;;;;;;7.78;4.38;;;20.80;99.90;;;;;;5014584;28;20033;-48
2022/12/02 01:06:39;;;;;;;6.07;4.40;;;20.80;99.90;;;;;;5013217;28;20025;-48
2022/12/02 01:09:05;;;;;;;9.93;5.03;;;20.80;99.90;;;;;;5014498;28;20025;-48
2022/12/02 01:11:31;;;;;;;8.68;4.40;;;20.80;99.90;;;;;;5014590;28;20026;-47
2022/12/02 01:13:56;;;;;;;6.25;4.50;;;20.80;99.90;;;;;;5014318;28;20389;-47
2022/12/02 01:16:22;;;;;;;5.85;4.18;;;20.80;99.90;;;;;;5014456;28;20021;-47
2022/12/02 01:18:48;;;;;;;6.28;4.28;;;20.80;99.90;;;;;;5014189;28;20455;-48
2022/12/02 01:21:14;;;;;;;8.27;4.63;;;20.80;99.90;;;;;;5014146;28;20024;-48
2022/12/02 01:23:39;;;;;;;6.85;4.35;;;20.80;99.90;;;;;;5014348;28;20462;-48
2022/12/02 01:26:05;;;;;;;7.65;4.38;;;20.80;99.90;;;;;;5013002;28;20467;-47
2022/12/02 01:28:31;;;;;;;6.50;4.88;;;20.80;99.90;;;;;;5014398;28;20036;-48
2022/12/02 01:30:56;;;;;;;7.57;4.32;;;20.80;99.90;;;;;;5014086;28;20056;-48
2022/12/02 01:33:22;;;;;;;8.50;5.00;;;20.80;99.90;;;;;;5013888;28;20112;-48
2022/12/02 01:35:48;;;;;;;7.57;4.60;;;20.80;99.90;;;;;;5013851;28;20034;-47
2022/12/02 01:38:14;;;;;;;6.10;4.18;;;20.80;99.90;;;;;;5014004;28;20163;-47
2022/12/02 01:40:40;;;;;;;6.88;4.97;;;20.80;99.90;;;;;;5012661;28;20049;-47
2022/12/02 01:43:06;;;;;;;6.70;4.60;;;20.80;99.90;;;;;;5013976;28;20088;-47
2022/12/02 01:45:31;;;;;;;7.10;4.78;;;20.80;99.90;;;;;;5012857;28;20026;-47
2022/12/02 01:48:00;;;;;;;6.38;4.07;;;20.80;99.90;;;;;;5013821;28;20528;-47
2022/12/02 01:50:27;;;;;;;6.43;4.60;;;20.70;99.90;;;;;;5013670;28;20029;-47
2022/12/02 01:52:53;;;;;;;8.60;4.97;;;20.70;99.90;;;;;;5013908;28;20417;-48
2022/12/02 01:55:21;;;;;;;8.82;5.20;;;20.80;99.90;;;;;;5013528;28;20046;-47
2022/12/02 01:57:47;;;;;;;9.52;5.20;;;20.70;99.90;;;;;;5013445;28;20045;-48
2022/12/02 02:00:14;;;;;;;7.60;4.90;;;20.70;99.90;;;;;;5014100;28;20466;-47
2022/12/02 02:02:40;;;;;;;8.02;4.53;;;20.70;99.90;;;;;;5013429;28;20113;-48
2022/12/02 02:05:15;;;;;;;7.80;4.47;;;20.70;99.90;;;;;;5012985;28;20018;-48
2022/12/02 02:07:42;;;;;;;6.82;4.45;;;20.70;99.90;;;;;;5013525;28;20486;-48
2022/12/02 02:10:08;;;;;;;6.85;4.15;;;20.70;99.90;;;;;;5013462;28;20088;-48
2022/12/02 02:12:35;;;;;;;7.70;4.55;;;20.70;99.90;;;;;;5013616;28;20030;-48
2022/12/02 02:15:06;;;;;;;6.68;4.40;;;20.70;99.90;;;;;;5013219;28;20040;-48
2022/12/02 02:17:32;;;;;;;6.63;4.32;;;20.70;99.90;;;;;;5013268;28;20026;-48
2022/12/02 02:19:58;;;;;;;8.45;4.70;;;20.70;99.90;;;;;;5013327;28;20080;-48
2022/12/02 02:22:30;;;;;;;7.88;4.55;;;20.70;99.90;;;;;;5013176;28;20018;-48
2022/12/02 02:24:55;;;;;;;6.57;4.18;;;20.70;99.90;;;;;;5013171;28;20080;-48
2022/12/02 02:27:22;;;;;;;6.03;4.47;;;20.70;99.90;;;;;;5012986;28;20026;-48
2022/12/02 02:29:48;;;;;;;9.10;4.70;;;20.70;99.90;;;;;;5013009;28;20036;-47
2022/12/02 02:32:14;;;;;;;7.13;4.65;;;20.70;99.90;;;;;;5013145;28;20022;-48
2022/12/02 02:34:40;;;;;;;5.90;4.20;;;20.70;99.90;;;;;;5012982;28;20038;-48
2022/12/02 02:37:06;;;;;;;6.68;4.03;;;20.70;99.90;;;;;;4995539;28;20051;-48
2022/12/02 02:39:32;;;;;;;8.45;5.00;;;20.70;99.90;;;;;;5012895;28;20021;-48
2022/12/02 02:41:58;;;;;;;5.93;4.13;;;20.70;99.90;;;;;;5012915;28;20034;-47
2022/12/02 02:44:27;;;;;;;8.40;4.80;;;20.70;99.90;;;;;;5012975;28;20386;-47
2022/12/02 02:46:53;;;;;;;6.50;4.78;;;20.70;99.90;;;;;;5011647;28;20049;-48
2022/12/02 02:49:19;;;;;;;7.55;4.50;;;20.60;99.90;;;;;;5012800;28;20053;-48
2022/12/02 02:51:45;;;;;;;6.28;4.05;;;20.60;99.90;;;;;;5012649;28;20092;-48
2022/12/02 02:54:11;;;;;;;6.53;4.00;;;20.60;99.90;;;;;;5012599;28;20494;-47
2022/12/02 02:56:37;;;;;;;5.85;4.05;;;20.60;99.90;;;;;;5012817;28;20022;-50
2022/12/02 02:59:02;;;;;;;7.45;4.47;;;20.60;99.90;;;;;;5012575;28;20026;-48
2022/12/02 03:01:36;;;;;;;7.53;4.28;;;20.60;99.90;;;;;;5008494;22;20537;-59
2022/12/02 03:04:08;;;;;;;6.63;4.22;;;20.60;99.90;;;;;;4975550;28;20113;-59
2022/12/02 03:06:36;;;;;;;7.28;3.95;;;20.60;99.90;;;;;;4992868;28;20022;-58
2022/12/02 03:09:05;;;;;;;6.05;4.45;;;20.60;99.90;;;;;;4992978;28;20034;-59
2022/12/02 03:11:31;;;;;;;7.13;4.10;;;20.60;99.90;;;;;;4992964;28;20101;-60
2022/12/02 03:13:59;;;;;;;7.87;4.10;;;20.60;99.90;;;;;;4975612;28;20050;-61
2022/12/02 03:16:25;;;;;;;7.93;5.22;;;20.60;99.90;;;;;;4995737;28;20145;-62
2022/12/02 03:18:53;;;;;;;6.10;3.90;;;20.60;99.90;;;;;;4999295;28;20018;-59
2022/12/02 03:21:20;;;;;;;6.50;4.07;;;20.60;99.90;;;;;;4999289;28;20065;-62
2022/12/02 03:23:48;;;;;;;7.45;4.47;;;20.50;99.90;;;;;;4999504;28;20105;-62
2022/12/02 03:26:14;;;;;;;7.57;4.57;;;20.50;99.90;;;;;;4999278;28;20034;-62
2022/12/02 03:28:41;;;;;;;7.38;4.43;;;20.50;99.90;;;;;;4965784;28;20100;-60
2022/12/02 03:31:08;;;;;;;6.93;3.88;;;20.50;99.90;;;;;;4999361;28;20058;-62
2022/12/02 03:33:34;;;;;;;6.38;4.20;;;20.50;99.90;;;;;;4999094;28;20026;-62
2022/12/02 03:36:00;;;;;;;6.35;4.57;;;20.50;99.90;;;;;;4999092;28;20120;-60
2022/12/02 03:38:27;;;;;;;5.50;3.85;;;20.50;99.90;;;;;;4999004;28;20034;-58
2022/12/02 03:40:53;;;;;;;6.35;4.35;;;20.50;99.90;;;;;;4999153;28;20031;-60
2022/12/02 03:43:19;;;;;;;5.70;3.70;;;20.50;99.90;;;;;;4999153;28;20057;-60
2022/12/02 03:45:45;;;;;;;6.43;4.00;;;20.50;99.90;;;;;;4999054;28;20022;-58
2022/12/02 03:48:12;;;;;;;7.03;4.60;;;20.50;99.90;;;;;;4999223;28;20340;-61
2022/12/02 03:50:40;;;;;;;6.82;3.80;;;20.50;99.90;;;;;;4999024;28;20026;-61
2022/12/02 03:53:05;;;;;;;5.43;3.70;;;20.40;99.90;;;;;;4998958;28;20418;-60
2022/12/02 03:55:31;;;;;;;6.82;4.03;;;20.40;99.90;;;;;;4998825;28;20034;-60
2022/12/02 03:58:05;;;;;;;6.28;3.90;;;20.50;99.90;;;;;;4999084;28;20030;-60
2022/12/02 04:00:31;;;;;;;6.25;3.95;;;20.40;99.90;;;;;;5030035;22;20045;-48
2022/12/02 04:02:57;;;;;;;6.88;4.13;;;20.40;99.90;;;;;;5038372;28;20033;-46
2022/12/02 04:05:22;;;;;;;10.93;4.35;;;20.50;99.90;;;;;;5038396;28;20423;-47
2022/12/02 04:07:48;;;;;;;6.50;3.53;;;20.40;99.90;;;;;;5038163;28;20028;-47
2022/12/02 04:10:14;;;;;;;5.43;4.05;;;20.40;99.90;;;;;;5038505;28;20029;-47
2022/12/02 04:12:40;;;;;;;6.65;4.05;;;20.40;99.90;;;;;;5038388;28;20029;-47
2022/12/02 04:15:06;;;;;;;5.68;3.30;;;20.40;99.90;;;;;;5038248;28;20086;-47
2022/12/02 04:17:32;;;;;;;5.57;3.90;;;20.40;99.90;;;;;;5038235;28;20470;-47
2022/12/02 04:19:57;;;;;;;8.52;4.15;;;20.40;99.90;;;;;;5033742;28;20033;-47
2022/12/02 04:22:23;;;;;;;6.60;4.20;;;20.40;99.90;;;;;;5028030;28;20017;-47
2022/12/02 04:24:49;;;;;;;5.00;3.83;;;20.40;99.90;;;;;;5021277;28;20057;-48
2022/12/02 04:27:15;;;;;;;5.82;3.60;;;20.40;99.90;;;;;;5023403;28;20104;-47
2022/12/02 04:29:40;;;;;;;6.97;3.72;;;20.40;99.90;;;;;;5020097;28;20477;-48
2022/12/02 04:32:06;;;;;;;6.32;4.10;;;20.40;99.90;;;;;;5025576;28;20041;-48
2022/12/02 04:34:32;;;;;;;6.10;4.25;;;20.40;99.90;;;;;;5019652;28;20540;-48
2022/12/02 04:36:58;;;;;;;6.63;3.35;;;20.30;99.90;;;;;;5012974;28;20074;-48
2022/12/02 04:39:23;;;;;;;5.18;3.80;;;20.30;99.90;;;;;;5012948;28;20065;-48
2022/12/02 04:41:49;;;;;;;7.60;4.07;;;20.30;99.90;;;;;;5011796;28;20157;-48
2022/12/02 04:44:15;;;;;;;5.43;3.75;;;20.30;99.90;;;;;;5013275;28;20344;-47
2022/12/02 04:46:40;;;;;;;6.82;4.10;;;20.30;99.90;;;;;;5012738;28;20479;-47
2022/12/02 04:49:06;;;;;;;7.00;3.65;;;20.30;99.90;;;;;;5012934;28;20088;-48
2022/12/02 04:51:32;;;;;;;5.65;3.83;;;20.30;99.90;;;;;;5012866;28;20034;-47
2022/12/02 04:53:58;;;;;;;6.70;4.18;;;20.30;99.90;;;;;;5012855;28;20030;-47
2022/12/02 04:56:24;;;;;;;7.55;4.18;;;20.30;99.90;;;;;;5012662;28;20080;-47
2022/12/02 04:58:49;;;;;;;7.43;3.65;;;20.30;99.90;;;;;;5011220;28;20053;-47
2022/12/02 05:01:15;;;;;;;7.03;3.85;;;20.30;99.90;;;;;;5014642;28;20526;-48
2022/12/02 05:03:41;;;;;;;8.65;4.13;;;20.30;99.90;;;;;;5014273;28;20030;-48
2022/12/02 05:06:06;;;;;;;12.02;4.55;;;20.30;99.90;;;;;;5014312;28;20022;-47
2022/12/02 05:08:32;;;;;;;6.53;3.88;;;20.30;99.90;;;;;;5014590;28;20026;-48
2022/12/02 05:10:58;;;;;;;8.18;4.43;;;20.30;99.90;;;;;;5014548;28;20461;-48
2022/12/02 05:13:24;;;;;;;6.30;4.00;;;20.30;99.90;;;;;;5013223;28;20462;-48
2022/12/02 05:15:49;;;;;;;7.65;4.55;;;20.30;99.90;;;;;;5014491;28;20038;-47
2022/12/02 05:18:16;;;;;;;6.32;4.13;;;20.30;99.90;;;;;;5014644;28;20208;-48
2022/12/02 05:20:42;;;;;;;7.18;4.35;;;20.20;99.90;;;;;;5014290;28;20029;-47
2022/12/02 05:23:08;;;;;;;7.93;4.88;;;20.30;99.90;;;;;;5014298;28;20026;-47
2022/12/02 05:25:33;;;;;;;8.10;3.90;;;20.20;99.90;;;;;;5013078;28;20441;-47
2022/12/02 05:27:59;;;;;;;4.75;3.40;;;20.20;99.90;;;;;;5014141;28;20041;-48
2022/12/02 05:30:25;;;;;;;6.35;3.95;;;20.20;99.90;;;;;;5014068;28;20030;-47
2022/12/02 05:32:51;;;;;;;8.02;4.03;;;20.20;99.90;;;;;;5014292;28;20026;-47
2022/12/02 05:35:17;;;;;;;5.88;3.83;;;20.20;99.90;;;;;;5014151;28;20038;-48
2022/12/02 05:37:43;;;;;;;9.10;4.13;;;20.20;99.90;;;;;;5013873;28;20030;-47
2022/12/02 05:40:09;;;;;;;12.85;3.88;;;20.20;99.90;;;;;;5012890;28;20029;-47
2022/12/02 05:42:35;;;;;;;7.28;4.10;;;20.20;99.90;;;;;;5013933;28;20030;-47
2022/12/02 05:45:12;;;;;;;6.28;3.80;;;20.20;99.90;;;;;;5013973;28;20112;-47
2022/12/02 05:47:37;;;;;;;7.68;4.10;;;20.20;99.90;;;;;;5013760;28;20026;-47
2022/12/02 05:50:10;;;;;;;8.35;4.45;;;20.20;99.90;;;;;;5013803;28;20168;-47
2022/12/02 05:52:35;;;;;;;6.45;3.72;;;20.20;99.90;;;;;;5013838;28;20383;-47
2022/12/02 05:55:11;;;;;;;6.68;4.10;;;20.20;99.90;;;;;;5013555;28;20041;-47
2022/12/02 05:57:37;;;;;;;6.30;4.30;;;20.20;99.90;;;;;;5013576;28;20022;-47
2022/12/02 06:00:15;;;;;;;6.93;3.95;;;20.20;99.90;;;;;;5012331;28;20048;-47
2022/12/02 06:02:48;;;;;;;6.60;4.60;;;20.20;99.90;;;;;;5013674;28;20018;-47
2022/12/02 06:05:19;;;;;;;7.47;4.05;;;20.20;99.90;;;;;;5013486;28;20391;-47
2022/12/02 06:07:46;;;;;;;6.25;3.95;;;20.20;99.90;;;;;;5013538;28;20022;-48
2022/12/02 06:10:30;;;;;;;6.85;4.25;;;20.20;99.90;;;;;;5012291;28;20029;-47
2022/12/02 06:13:03;;;;;;;5.40;4.05;;;20.10;99.90;;;;;;5012155;28;20102;-47
2022/12/02 06:15:37;;;;;;;5.85;4.07;;;20.20;99.90;;;;;;5013182;28;20118;-48
2022/12/02 06:18:23;;;;;;;7.90;4.35;;;20.20;99.90;;;;;;5013431;28;20383;-47
2022/12/02 06:21:12;;;;;;;8.68;4.50;;;20.20;99.90;;;;;;5013274;28;20026;-47
2022/12/02 06:23:43;;;;;;;6.25;3.92;;;20.10;99.90;;;;;;5013107;28;20474;-47
2022/12/02 06:26:12;;;;;;;5.65;3.95;;;20.10;99.90;;;;;;5013074;28;20038;-48
2022/12/02 06:28:40;;;;;;;6.13;4.03;;;20.10;99.90;;;;;;5013040;28;20104;-47
2022/12/02 06:31:30;;;;;;;9.95;4.85;;;20.10;99.90;;;;;;5013116;28;20032;-47
2022/12/02 06:33:58;;;;;;;5.90;3.72;;;20.10;99.90;;;;;;5012672;28;20038;-47
2022/12/02 06:36:33;;;;;;;;;;;20.10;99.90;;;;;;5013567;28;20037;-48
2022/12/02 06:39:02;;;;;;;7.65;4.35;;;20.10;99.90;;;;;;5011753;28;19984;-47
2022/12/02 06:41:35;;;;;;;7.18;3.63;;;20.10;99.90;;;;;;5012916;28;20550;-47
2022/12/02 06:47:31;;;;;;;6.57;4.20;;;20.10;99.90;;;;;;5013025;28;20052;-47
2022/12/02 06:49:57;;;;;;;7.43;4.28;;;20.10;99.90;;;;;;5012586;28;20398;-48
2022/12/02 06:52:23;;;;;;;6.50;3.85;;;20.10;99.90;;;;;;5012549;28;20022;-48
2022/12/02 06:54:51;;;;;;;7.05;4.10;;;20.10;99.90;;;;;;5012617;28;20480;-48
2022/12/02 06:57:19;;;;;;;7.80;4.05;;;20.10;99.90;;;;;;5012718;28;20029;-48
2022/12/02 06:59:48;;;;;;;6.85;4.07;;;20.10;99.90;;;;;;5012413;28;20022;-47
2022/12/02 07:02:25;;;;;;;7.10;4.18;;;20.10;99.90;;;;;;5012624;28;20022;-47
2022/12/02 07:04:53;;;;;;;8.88;4.25;;;20.10;99.90;;;;;;5012470;28;20065;-47
2022/12/02 07:07:20;;;;;;;8.68;4.95;;;20.10;99.90;;;;;;5012436;28;20026;-47
2022/12/02 07:09:54;;;;;;;7.38;4.15;;;20.10;99.90;;;;;;5012495;28;20505;-47
2022/12/02 07:12:29;;;;;;;5.57;4.10;;;20.10;99.90;;;;;;5012479;28;20029;-47
2022/12/02 07:14:56;;;;;;;6.47;3.65;;;20.10;99.90;;;;;;5012743;28;20034;-47
2022/12/02 07:17:22;;;;;;;8.05;4.30;;;20.10;99.90;;;;;;5012361;28;20022;-48
2022/12/02 07:20:04;;;;;;;8.63;5.05;;;20.00;99.90;;;;;;5012302;28;20034;-48
2022/12/02 07:22:39;;;;;;;10.50;5.50;;;20.10;99.90;;;;;;5012522;28;20029;-47
2022/12/02 07:25:10;;;;;;;8.30;4.47;;;20.10;99.90;;;;;;5012436;28;20036;-48
2022/12/02 07:27:41;;;;;;;6.10;3.88;;;20.10;99.90;;;;;;5012180;28;20018;-47
2022/12/02 07:30:28;;;;;;;7.72;3.92;;;20.10;99.90;;;;;;5012236;28;20022;-47
2022/12/02 07:32:54;;;;;;;8.23;4.35;;;20.00;99.90;;;;;;5012404;28;20486;-47
2022/12/02 07:35:20;;;;;;;6.45;4.00;;;20.10;99.90;;;;;;5012078;28;20073;-47
2022/12/02 07:37:46;;;;;;;8.07;4.50;;;20.00;99.90;;;;;;5012279;28;20112;-47
2022/12/02 07:40:13;;;;;;;6.43;4.03;;;20.10;99.90;;;;;;5012196;28;20038;-47
2022/12/02 07:42:39;;;;;;;8.32;4.28;;;20.00;99.90;;;;;;5012061;28;20026;-47
2022/12/02 07:45:05;;;;;;;8.70;4.07;;;20.10;99.90;;;;;;5012214;28;20037;-47
2022/12/02 07:47:31;;;;;;;9.82;4.20;;;20.00;99.90;;;;;;5012229;28;20044;-47
2022/12/02 07:49:57;;;;;;;8.82;4.55;;;20.00;99.90;;;;;;5010880;28;20470;-47
2022/12/02 07:52:23;;;;;;;6.32;4.40;;;20.10;99.90;;;;;;5012118;28;20026;-47
2022/12/02 07:54:50;;;;;;;7.82;4.47;;;20.10;99.90;;;;;;5011965;28;20041;-47
2022/12/02 07:57:16;;;;;;;9.05;4.72;;;20.10;99.90;;;;;;5011976;28;20018;-47
2022/12/02 07:59:42;;;;;;;7.65;4.32;;;20.00;99.90;;;;;;5011763;28;20029;-47
2022/12/02 08:02:07;;;;;;;8.13;4.72;;;20.10;99.90;;;;;;5012000;28;20022;-48
2022/12/02 08:04:33;;;;;;;8.20;4.35;;;20.10;99.90;;;;;;5015153;28;20033;-47
2022/12/02 08:06:59;;;;;;;7.50;4.65;;;20.00;99.90;;;;;;5015704;28;20041;-47
2022/12/02 08:09:24;;;;;;;7.10;4.07;;;20.10;99.90;;;;;;5015510;28;20022;-47
2022/12/02 08:11:50;;;;;;;6.20;3.80;;;20.10;99.90;;;;;;5015357;28;20025;-48
2022/12/02 08:14:16;;;;;;;8.68;4.97;;;20.10;99.90;;;;;;5015437;28;20034;-47
2022/12/02 08:16:42;;;;;;;7.90;4.43;;;20.10;99.90;;;;;;5015414;28;20022;-47
2022/12/02 08:19:07;;;;;;;7.63;4.43;;;20.10;99.90;;;;;;5015381;28;20022;-48
2022/12/02 08:21:33;;;;;;;6.70;4.55;;;20.10;99.90;;;;;;5015453;28;20029;-48
2022/12/02 08:23:59;;;;;;;8.05;4.80;;;20.10;99.90;;;;;;5014189;28;20037;-48
2022/12/02 08:26:25;;;;;;;8.18;4.10;;;20.10;99.90;;;;;;5015290;28;20502;-47
2022/12/02 08:28:51;;;;;;;6.75;4.03;;;20.10;99.90;;;;;;5015322;28;20026;-48
2022/12/02 08:31:17;;;;;;;7.00;4.15;;;20.10;99.90;;;;;;5015210;28;20036;-47
2022/12/02 08:33:42;;;;;;;9.02;4.63;;;20.10;99.90;;;;;;5015027;28;20490;-48
2022/12/02 08:36:08;;;;;;;6.90;3.75;;;20.10;99.90;;;;;;5015131;28;20478;-47
2022/12/02 08:38:34;;;;;;;8.60;4.35;;;20.10;99.90;;;;;;5015050;28;20071;-47
2022/12/02 08:41:00;;;;;;;7.47;3.88;;;20.10;99.90;;;;;;5015066;28;20022;-47
2022/12/02 08:43:25;;;;;;;6.22;3.80;;;20.10;99.90;;;;;;5014994;28;20034;-47
2022/12/02 08:45:51;;;;;;;7.47;4.72;;;20.10;99.90;;;;;;5014877;28;20375;-47
2022/12/02 08:48:17;;;;;;;5.95;4.13;;;20.10;99.90;;;;;;5014767;28;20111;-47
2022/12/02 08:50:43;;;;;;;6.40;4.25;;;20.10;99.90;;;;;;5013524;28;20462;-47
2022/12/02 08:53:09;;;;;;;8.15;4.55;;;20.10;99.90;;;;;;5014691;28;20037;-47
2022/12/02 08:55:34;;;;;;;5.75;3.95;;;20.10;99.90;;;;;;5014697;28;20062;-47
2022/12/02 08:58:00;;;;;;;7.20;4.53;;;20.10;99.90;;;;;;5014878;28;20032;-48
2022/12/02 09:00:26;;;;;;;5.35;3.78;;;20.20;99.90;;;;;;5014541;28;20121;-48
2022/12/02 09:02:52;;;;;;;6.72;4.20;;;20.20;99.90;;;;;;5014622;28;20045;-48
2022/12/02 09:05:17;;;;;;;7.03;4.13;;;20.20;99.90;;;;;;5014469;28;20029;-48
2022/12/02 09:07:43;;;;;;;6.65;4.25;;;20.20;99.90;;;;;;5014384;28;20048;-47
2022/12/02 09:10:11;;;;;;;5.60;4.22;;;20.20;99.90;;;;;;5014384;28;20093;-47
2022/12/02 09:12:37;;;;;;;5.40;3.65;;;20.20;99.90;;;;;;5014453;28;20493;-47
2022/12/02 09:15:03;;;;;;;6.68;4.05;;;20.30;99.90;;;;;;5012944;28;20074;-47
2022/12/02 09:17:29;;;;;;;7.00;4.32;;;20.30;99.90;;;;;;5014207;28;20409;-48
2022/12/02 09:19:54;;;;;;;12.55;4.93;;;20.30;99.90;;;;;;5014364;28;20022;-48
2022/12/02 09:22:20;;;;;;;6.07;3.63;;;20.40;99.90;;;;;;5014187;28;20456;-48
2022/12/02 09:24:46;;;;;;;6.18;3.47;;;20.40;99.90;;;;;;5014070;28;20105;-48
2022/12/02 09:27:12;;;;;;;11.68;4.45;;;20.50;99.90;;;;;;5014172;28;20072;-48
2022/12/02 09:29:37;;;;;;;6.40;3.85;;;20.50;99.90;;;;;;5014104;28;20391;-48
2022/12/02 09:32:03;;;;;;;4.65;3.38;;;20.60;99.90;;;;;;5014251;28;20102;-48
2022/12/02 09:34:29;;;;;;;7.57;3.88;;;20.70;99.90;;;;;;5013772;28;20034;-48
2022/12/02 09:36:55;;;;;;;6.95;4.25;;;20.70;99.90;;;;;;5014377;28;20037;-48
2022/12/02 09:39:20;;;;;;;5.82;4.22;;;20.70;99.90;;;;;;5013753;28;20029;-48
2022/12/02 09:41:46;;;;;;;7.72;4.38;;;20.80;99.90;;;;;;5013925;28;20033;-48
2022/12/02 09:44:12;;;;;;;5.30;3.72;;;20.80;99.90;;;;;;5013947;28;20037;-48
2022/12/02 09:46:38;;;;;;;6.85;3.88;;;20.90;99.90;;;;;;5013931;28;20022;-48
2022/12/02 09:49:04;;;;;;;6.90;4.35;;;21.00;99.90;;;;;;5013863;28;20109;-48
2022/12/02 09:51:31;;;;;;;7.63;3.58;;;21.00;99.90;;;;;;5013606;28;20022;-48
2022/12/02 09:53:57;;;;;;;7.75;3.70;;;21.10;99.90;;;;;;5013543;28;20030;-47
2022/12/02 09:56:23;;;;;;;6.70;3.95;;;21.20;99.90;;;;;;5013722;28;20425;-48
2022/12/02 09:58:52;;;;;;;5.72;4.05;;;21.20;99.90;;;;;;5013545;28;20033;-48
2022/12/02 10:01:18;;;;;;;5.50;3.50;;;21.30;99.90;;;;;;5013422;28;20490;-48
2022/12/02 10:03:46;;;;;;;6.70;4.00;;;21.30;99.90;;;;;;5013623;28;20065;-48
2022/12/02 10:06:19;;;;;;;7.30;4.28;;;21.40;99.90;;;;;;5013324;28;20018;-48
2022/12/02 10:08:45;;;;;;;7.43;4.75;;;21.50;99.90;;;;;;5013600;28;20096;-48
2022/12/02 10:11:37;;;;;;;7.13;3.83;;;21.50;99.90;;;;;;5012005;28;20026;-48
2022/12/02 10:14:05;;;;;;;6.57;3.55;;;21.50;99.90;;;;;;5011219;28;20034;-48
2022/12/02 10:16:33;;;;;;;5.45;3.47;;;21.60;99.90;;;;;;5013189;28;20049;-48
2022/12/02 10:19:03;;;;;;;5.50;3.88;;;21.70;99.90;;;;;;5013177;28;20445;-48
2022/12/02 10:21:28;;;;;;;5.65;3.63;;;21.80;99.90;;;;;;5013128;28;20029;-48
2022/12/02 10:24:06;;;;;;;5.20;3.78;;;21.80;99.90;;;;;;5011870;28;20101;-49
2022/12/02 10:26:49;;;;;;;5.70;3.78;;;21.90;99.90;;;;;;5012395;28;20038;-48
2022/12/02 10:29:29;;;;;;;5.20;3.53;;;21.90;99.90;;;;;;5011821;28;20061;-48
2022/12/02 10:32:05;;;;;;;6.20;3.63;;;22.00;99.90;;;;;;5012957;28;20029;-49
2022/12/02 10:34:32;;;;;;;5.65;3.72;;;22.10;99.90;;;;;;5011598;28;20490;-48
2022/12/02 10:37:23;;;;;;;5.65;3.92;;;22.10;99.90;;;;;;5012908;28;20034;-49
2022/12/02 10:40:07;;;;;;;5.38;4.22;;;22.20;99.90;;;;;;5012768;28;20037;-48
2022/12/02 10:42:32;;;;;;;5.53;3.90;;;22.20;99.90;;;;;;5012841;28;20053;-48
2022/12/02 10:45:17;;;;;;;5.28;3.63;;;22.20;99.90;;;;;;5011332;28;20477;-48
2022/12/02 10:47:43;;;;;;;5.07;3.70;;;22.30;99.90;;;;;;5012661;28;20042;-48
2022/12/02 10:50:20;;;;;;;5.53;3.58;;;22.30;99.90;;;;;;5012764;28;20068;-50
2022/12/02 10:52:52;;;;;;;8.13;3.27;;;22.40;99.90;;;;;;5012599;28;20548;-48
2022/12/02 10:55:19;;;;;;;6.53;3.72;;;22.40;99.90;;;;;;5012516;28;20030;-48
2022/12/02 10:57:46;;;;;;;5.05;3.17;;;22.40;99.90;;;;;;5012502;28;20018;-48
2022/12/02 11:00:24;;;;;;;5.10;3.38;;;22.50;99.90;;;;;;5012442;28;20037;-49
2022/12/02 11:02:55;;;;;;;4.47;3.33;;;22.50;99.90;;;;;;5012518;28;20080;-49
2022/12/02 11:05:22;;;;;;;6.93;3.63;;;22.50;99.90;;;;;;5012558;28;20056;-48
2022/12/02 11:07:52;;;;;;;6.50;3.72;;;22.60;99.90;;;;;;5012479;28;20034;-49
2022/12/02 11:10:20;;;;;;;5.55;3.88;;;22.60;99.90;;;;;;5012260;28;20102;-49
2022/12/02 11:12:53;;;;;;;9.23;3.75;;;22.70;99.90;;;;;;5012316;28;20037;-49
2022/12/02 11:15:51;;;;;;;6.60;3.75;;;22.70;99.90;;;;;;5012166;28;20101;-48
2022/12/02 11:18:29;;;;;;;8.68;3.97;;;22.70;99.90;;;;;;5012234;28;20040;-49
2022/12/02 11:21:02;;;;;;;10.68;4.50;;;22.80;99.90;;;;;;5012155;28;20018;-49
2022/12/02 11:23:29;;;;;;;6.85;4.03;;;22.80;99.90;;;;;;5012124;28;20356;-49
2022/12/02 11:26:00;;;;;;;7.47;4.20;;;22.80;99.90;;;;;;5012361;28;20057;-48
2022/12/02 11:28:28;;;;;;;5.28;4.05;;;22.90;99.90;;;;;;5012136;28;20042;-49
2022/12/02 11:31:09;;;;;;;7.50;4.05;;;22.90;99.90;;;;;;5012053;28;20022;-49
2022/12/02 11:33:47;;;;;;;5.85;3.40;;;23.00;99.90;;;;;;5012205;28;20076;-49
2022/12/02 11:36:24;;;;;;;6.53;3.83;;;23.00;99.90;;;;;;5012362;28;20034;-49
2022/12/02 11:38:50;;;;;;;7.82;4.30;;;23.00;99.90;;;;;;5015817;28;20067;-48
2022/12/02 11:41:18;;;;;;;9.23;4.50;;;23.10;99.90;;;;;;5016102;28;20475;-49
2022/12/02 11:43:47;;;;;;;7.28;4.03;;;23.10;99.90;;;;;;5016484;28;20378;-49
2022/12/02 11:46:18;;;;;;;7.10;4.70;;;23.20;99.90;;;;;;5015999;28;20026;-49
2022/12/02 11:48:46;;;;;;;8.15;4.88;;;23.20;99.90;;;;;;5016404;28;20022;-49
2022/12/02 11:51:38;;;;;;;7.10;4.70;;;23.20;99.90;;;;;;5016088;28;20475;-49
2022/12/02 11:54:11;;;;;;;7.47;5.63;;;23.20;99.90;;;;;;5015745;28;20432;-48
2022/12/02 11:56:38;;;;;;;8.90;5.60;;;23.30;99.90;;;;;;5015906;28;20053;-49
2022/12/02 11:59:24;;;;;;;8.65;5.80;;;23.30;99.90;;;;;;5015707;28;20017;-49
2022/12/02 12:01:50;;;;;;;10.52;6.47;;;23.30;99.90;;;;;;5015545;28;20374;-49
2022/12/02 12:04:28;;;;;;;12.90;6.28;;;23.40;99.90;;;;;;5015685;28;20088;-49
2022/12/02 12:06:54;;;;;;;;;;;23.40;99.90;;;;;;5016017;28;20065;-49
2022/12/02 12:09:20;;;;;;;12.35;6.82;;;23.50;99.90;;;;;;5014490;28;19912;-48
2022/12/02 12:12:15;;;;;;;9.88;6.93;;;23.50;99.90;;;;;;5015660;28;20034;-49
2022/12/02 12:14:53;;;;;;;10.23;7.43;;;23.50;99.90;;;;;;5015420;28;20449;-49
2022/12/02 12:17:30;;;;;;;12.73;8.27;;;23.50;99.90;;;;;;5015433;28;20041;-49
2022/12/02 12:19:56;;;;;;;13.18;8.00;;;23.60;99.90;;;;;;5015483;28;20026;-49
2022/12/02 12:22:29;;;;;;;13.27;8.07;;;23.60;99.90;;;;;;5015595;28;20037;-49
2022/12/02 12:25:31;;;;;;;13.95;8.30;;;23.60;99.90;;;;;;5015371;28;20475;-49
2022/12/02 12:27:57;;;;;;;12.55;8.10;;;23.60;99.90;;;;;;5013878;28;20088;-48
2022/12/02 12:30:23;;;;;;;14.43;9.13;;;23.70;99.90;;;;;;5015425;28;20051;-49
2022/12/02 12:32:49;;;;;;;13.35;9.38;;;23.70;99.90;;;;;;5015172;28;20467;-49
2022/12/02 12:35:14;;;;;;;15.73;9.07;;;23.70;99.90;;;;;;4997501;28;20038;-49
2022/12/02 12:37:40;;;;;;;17.95;9.75;;;23.70;99.90;;;;;;5015059;28;20018;-49
2022/12/02 12:40:06;;;;;;;17.00;9.57;;;23.80;99.90;;;;;;5019936;28;20025;-49
2022/12/02 12:42:32;;;;;;;16.45;9.30;;;23.80;99.90;;;;;;5024187;28;20026;-49
2022/12/02 12:44:58;;;;;;;16.13;9.52;;;23.80;99.90;;;;;;5023678;28;20127;-49
2022/12/02 12:47:23;;;;;;;15.18;9.95;;;23.80;99.90;;;;;;5024930;28;20023;-49
2022/12/02 12:49:49;;;;;;;15.15;10.23;;;23.90;99.90;;;;;;5023076;28;20033;-49
2022/12/02 12:52:15;;;;;;;18.48;10.68;;;23.90;99.90;;;;;;5024277;28;20025;-47
2022/12/02 12:54:41;;;;;;;15.40;10.88;;;23.90;99.90;;;;;;5023749;28;20042;-48
2022/12/02 12:57:06;;;;;;;16.73;10.07;;;23.90;99.90;;;;;;5023736;28;20025;-49
2022/12/02 12:59:32;;;;;;;15.35;10.60;;;23.90;99.90;;;;;;5022866;28;20037;-49